Time;durP1;ratioP1;P1;durP2;ratioP2;P2;SDS_P1;SDS_P2;PMS_P1;PMS_P2;Temp;Humidity;BMP_temperature;BMP_pressure;BME280_temperature;BME280_humidity;BME280_pressure;Samples;Min_cycle;Max_cycle;Signal;HPM_P1;HPM_P2
2023/03/25 00:01:59;;;;;;;20.05;3.78;;;9.90;99.90;;;;;;5098553;28;20039;-72
2023/03/25 00:04:26;;;;;;;17.63;3.38;;;9.90;99.90;;;;;;5106825;28;20073;-72
2023/03/25 00:06:55;;;;;;;20.48;4.32;;;9.90;99.90;;;;;;5095658;28;20047;-73
2023/03/25 00:09:21;;;;;;;17.05;3.90;;;9.90;99.90;;;;;;5097285;28;20040;-72
2023/03/25 00:11:50;;;;;;;22.60;4.55;;;9.90;99.90;;;;;;5096976;28;20046;-72
2023/03/25 00:14:16;;;;;;;24.70;3.78;;;9.90;99.90;;;;;;5103486;28;20075;-72
2023/03/25 00:16:47;;;;;;;23.30;4.75;;;9.90;99.90;;;;;;5097287;28;20117;-72
2023/03/25 00:19:15;;;;;;;16.05;3.35;;;9.90;99.90;;;;;;5102478;28;20114;-74
2023/03/25 00:21:44;;;;;;;22.58;4.05;;;9.90;99.90;;;;;;5104736;28;20081;-73
2023/03/25 00:24:11;;;;;;;18.33;3.50;;;9.90;99.90;;;;;;5112050;28;20040;-73
2023/03/25 00:26:41;;;;;;;17.63;3.33;;;9.90;99.90;;;;;;5113879;28;20046;-73
2023/03/25 00:29:07;;;;;;;19.73;3.90;;;9.90;99.90;;;;;;5092255;28;20043;-72
2023/03/25 00:31:34;;;;;;;16.13;3.85;;;9.90;99.90;;;;;;5109076;28;20043;-72
2023/03/25 00:33:59;;;;;;;19.17;4.00;;;9.80;99.90;;;;;;5115460;28;20050;-73
2023/03/25 00:36:25;;;;;;;13.88;3.60;;;9.80;99.90;;;;;;5099339;28;20040;-71
2023/03/25 00:38:51;;;;;;;23.35;4.03;;;9.70;99.90;;;;;;5096766;28;20422;-72
2023/03/25 00:41:21;;;;;;;25.75;5.05;;;9.60;99.90;;;;;;5111209;28;20036;-73
2023/03/25 00:43:48;;;;;;;19.38;3.40;;;9.60;99.90;;;;;;5094967;28;20096;-72
2023/03/25 00:46:15;;;;;;;26.60;3.97;;;9.60;99.90;;;;;;5077599;28;20501;-72
2023/03/25 00:48:41;;;;;;;22.60;3.70;;;9.50;99.90;;;;;;5097918;28;20040;-73
2023/03/25 00:51:08;;;;;;;20.55;3.88;;;9.60;99.90;;;;;;5098130;28;20052;-71
2023/03/25 00:53:36;;;;;;;23.65;4.10;;;9.50;99.90;;;;;;5116370;27;20458;-72
2023/03/25 00:56:03;;;;;;;17.20;3.40;;;9.50;99.90;;;;;;5127049;27;20031;-72
2023/03/25 00:58:29;;;;;;;24.65;4.82;;;9.40;99.90;;;;;;5119709;27;20289;-72
2023/03/25 01:00:55;;;;;;;24.25;5.65;;;9.50;99.90;;;;;;5119847;27;20040;-73
2023/03/25 01:03:30;;;;;;;19.00;4.05;;;9.40;99.90;;;;;;5124741;27;20039;-73
2023/03/25 01:05:57;;;;;;;26.00;4.80;;;9.40;99.90;;;;;;5131001;27;20074;-71
2023/03/25 01:08:24;;;;;;;18.10;4.18;;;9.40;99.90;;;;;;5116794;27;20082;-72
2023/03/25 01:10:53;;;;;;;22.70;4.18;;;9.40;99.90;;;;;;5114248;27;20051;-72
2023/03/25 01:13:19;;;;;;;21.80;3.92;;;9.40;99.90;;;;;;5128189;27;20457;-72
2023/03/25 01:15:45;;;;;;;18.20;4.28;;;9.30;99.90;;;;;;5120956;27;20420;-72
2023/03/25 01:18:10;;;;;;;24.75;4.90;;;9.30;99.90;;;;;;5120607;27;20043;-72
2023/03/25 01:20:38;;;;;;;27.35;5.20;;;9.30;99.90;;;;;;5121865;27;20040;-73
2023/03/25 01:23:04;;;;;;;28.75;4.25;;;9.40;99.90;;;;;;5124141;27;20079;-73
2023/03/25 01:25:29;;;;;;;31.33;4.75;;;9.20;99.90;;;;;;5119411;27;20074;-73
2023/03/25 01:27:55;;;;;;;28.10;4.93;;;9.20;99.90;;;;;;5131019;27;20031;-73
2023/03/25 01:30:20;;;;;;;34.13;5.35;;;9.20;99.90;;;;;;5129541;27;20088;-72
2023/03/25 01:32:46;;;;;;;26.10;4.80;;;9.20;99.90;;;;;;5123440;27;20044;-72
2023/03/25 01:35:12;;;;;;;22.33;5.03;;;9.20;99.90;;;;;;5119399;27;20039;-72
2023/03/25 01:37:38;;;;;;;31.08;4.75;;;9.10;99.90;;;;;;5132454;27;20376;-71
2023/03/25 01:40:08;;;;;;;25.75;5.03;;;9.10;99.90;;;;;;5125681;27;20054;-71
2023/03/25 01:42:34;;;;;;;27.10;5.13;;;9.10;99.90;;;;;;5124633;27;20050;-72
2023/03/25 01:45:20;;;;;;;28.00;5.35;;;9.20;99.90;;;;;;5131427;27;20039;-72
2023/03/25 01:47:48;;;;;;;24.83;5.40;;;9.10;99.90;;;;;;5119908;27;20044;-72
2023/03/25 01:50:16;;;;;;;23.88;4.88;;;9.00;99.90;;;;;;5130539;27;20039;-72
2023/03/25 01:52:46;;;;;;;24.40;4.80;;;9.10;99.90;;;;;;5124177;27;20051;-71
2023/03/25 01:55:12;;;;;;;28.88;4.82;;;9.00;99.90;;;;;;5127395;27;20073;-72
2023/03/25 01:57:42;;;;;;;28.23;5.35;;;9.00;99.90;;;;;;5124160;27;20035;-72
2023/03/25 02:00:09;;;;;;;32.80;4.85;;;9.00;99.90;;;;;;5116256;27;20118;-71
2023/03/25 02:02:39;;;;;;;27.08;4.78;;;9.00;99.90;;;;;;5118386;27;20360;-72
2023/03/25 02:05:11;;;;;;;32.15;5.30;;;9.00;99.90;;;;;;5115670;27;20043;-72
2023/03/25 02:07:41;;;;;;;30.98;4.47;;;8.90;99.90;;;;;;5125068;27;20066;-72
2023/03/25 02:10:09;;;;;;;33.78;5.05;;;8.90;99.90;;;;;;5118119;27;20039;-72
2023/03/25 02:12:35;;;;;;;28.00;4.47;;;8.90;99.90;;;;;;5106502;27;20073;-72
2023/03/25 02:15:03;;;;;;;31.65;5.75;;;8.80;99.90;;;;;;5134689;27;20307;-72
2023/03/25 02:18:03;;;;;;;29.58;4.32;;;8.80;99.90;;;;;;5098878;28;20070;-72
2023/03/25 02:20:53;;;;;;;30.98;5.03;;;8.80;99.90;;;;;;5120031;27;20039;-72
2023/03/25 02:23:43;;;;;;;30.27;5.07;;;8.80;99.90;;;;;;5134850;27;20530;-72
2023/03/25 02:26:36;;;;;;;34.15;5.10;;;8.80;99.90;;;;;;5140348;27;20126;-73
2023/03/25 02:29:39;;;;;;;33.20;6.05;;;8.80;99.90;;;;;;5125355;27;20058;-73
2023/03/25 02:32:33;;;;;;;35.25;5.60;;;8.80;99.90;;;;;;5113235;27;20047;-72
2023/03/25 02:35:03;;;;;;;31.02;5.20;;;8.80;99.90;;;;;;5134811;27;20035;-72
2023/03/25 02:37:48;;;;;;;36.28;5.22;;;8.80;99.90;;;;;;5130099;28;20044;-72
2023/03/25 02:40:19;;;;;;;37.40;6.05;;;8.80;99.90;;;;;;5115107;28;20092;-72
2023/03/25 02:42:53;;;;;;;36.05;6.20;;;8.80;99.90;;;;;;5112111;27;20051;-72
2023/03/25 02:45:30;;;;;;;36.97;5.32;;;8.80;99.90;;;;;;5121310;27;20048;-72
2023/03/25 02:48:12;;;;;;;35.55;6.22;;;8.80;99.90;;;;;;5111951;27;20062;-72
2023/03/25 02:50:47;;;;;;;39.53;5.85;;;8.80;99.90;;;;;;5124988;27;20035;-72
2023/03/25 02:53:20;;;;;;;30.27;5.43;;;8.80;99.90;;;;;;5120283;27;20075;-72
2023/03/25 02:55:48;;;;;;;39.38;5.65;;;8.80;99.90;;;;;;5125729;27;20035;-72
2023/03/25 02:58:16;;;;;;;;;;;8.80;99.90;;;;;;5119543;27;20047;-72
2023/03/25 03:00:43;;;;;;;28.80;5.32;;;8.80;99.90;;;;;;5127147;27;19970;-72
2023/03/25 03:03:09;;;;;;;31.95;5.57;;;8.80;99.90;;;;;;5123234;27;20601;-71
2023/03/25 03:05:39;;;;;;;31.75;5.55;;;8.80;99.90;;;;;;5103542;27;20491;-73
2023/03/25 03:08:41;;;;;;;33.30;5.60;;;8.90;99.90;;;;;;5117706;27;20043;-72
2023/03/25 03:11:48;;;;;;;33.65;6.40;;;8.90;99.90;;;;;;5118417;27;20040;-72
2023/03/25 03:14:35;;;;;;;33.38;6.10;;;8.80;99.90;;;;;;5128100;27;20058;-73
2023/03/25 03:17:18;;;;;;;27.52;4.82;;;8.90;99.90;;;;;;5119338;27;20040;-72
2023/03/25 03:20:09;;;;;;;35.35;5.88;;;8.80;99.90;;;;;;5097869;28;20135;-72
2023/03/25 03:22:51;;;;;;;28.27;4.45;;;8.80;99.90;;;;;;5132886;27;20478;-73
2023/03/25 03:25:25;;;;;;;37.85;6.05;;;8.90;99.90;;;;;;5128181;27;20035;-71
2023/03/25 03:28:00;;;;;;;31.10;5.22;;;8.90;99.90;;;;;;5131858;27;20200;-71
2023/03/25 03:30:34;;;;;;;32.85;5.28;;;8.90;99.90;;;;;;5116325;27;20043;-71
2023/03/25 03:33:03;;;;;;;31.08;4.88;;;8.90;99.90;;;;;;5124706;27;20049;-71
2023/03/25 03:35:50;;;;;;;37.83;4.53;;;8.90;99.90;;;;;;5099897;27;20115;-71
2023/03/25 03:38:21;;;;;;;29.60;5.03;;;8.90;99.90;;;;;;5130304;27;20122;-72
2023/03/25 03:40:58;;;;;;;29.45;4.85;;;8.90;99.90;;;;;;5127681;27;20399;-72
2023/03/25 03:43:31;;;;;;;35.70;5.68;;;8.90;99.90;;;;;;5125424;27;20070;-71
2023/03/25 03:46:09;;;;;;;18.42;4.32;;;9.00;99.90;;;;;;5122135;27;20039;-71
2023/03/25 03:48:43;;;;;;;31.58;4.85;;;8.90;99.90;;;;;;5120715;27;20079;-71
2023/03/25 03:51:17;;;;;;;31.52;4.93;;;8.90;99.90;;;;;;5100208;27;20060;-71
2023/03/25 03:54:35;;;;;;;36.08;5.10;;;8.90;99.90;;;;;;5114181;27;20164;-72
2023/03/25 03:57:19;;;;;;;23.23;5.13;;;8.90;99.90;;;;;;5061822;28;20044;-71
2023/03/25 03:59:56;;;;;;;30.80;4.40;;;8.90;99.90;;;;;;5119764;27;20051;-72
2023/03/25 04:02:29;;;;;;;33.25;5.53;;;8.90;99.90;;;;;;5114903;27;20044;-71
2023/03/25 04:04:59;;;;;;;24.73;4.35;;;8.90;99.90;;;;;;5118131;27;20047;-71
2023/03/25 04:07:37;;;;;;;29.13;5.68;;;8.90;99.90;;;;;;5117199;27;20480;-71
2023/03/25 04:10:45;;;;;;;28.73;5.03;;;8.90;99.90;;;;;;5128095;27;20127;-71
2023/03/25 04:13:15;;;;;;;34.40;6.18;;;8.90;99.90;;;;;;5117524;27;20066;-71
2023/03/25 04:15:41;;;;;;;29.38;4.93;;;9.00;99.90;;;;;;5119846;27;20040;-72
2023/03/25 04:18:07;;;;;;;32.58;4.90;;;8.80;99.90;;;;;;5117234;27;20952;-71
2023/03/25 04:20:35;;;;;;;36.90;5.72;;;8.80;99.90;;;;;;5131941;27;20042;-71
2023/03/25 04:23:03;;;;;;;40.15;6.72;;;8.80;99.90;;;;;;5120886;27;20035;-72
2023/03/25 04:25:31;;;;;;;28.23;6.97;;;8.80;99.90;;;;;;5114627;27;20394;-71
2023/03/25 04:27:58;;;;;;;40.25;6.43;;;8.90;99.90;;;;;;5118299;27;20038;-71
2023/03/25 04:30:26;;;;;;;37.30;5.40;;;8.80;99.90;;;;;;5122878;27;20070;-71
2023/03/25 04:32:52;;;;;;;28.52;4.63;;;8.70;99.90;;;;;;5132167;27;20039;-70
2023/03/25 04:35:19;;;;;;;28.90;5.15;;;8.70;99.90;;;;;;5122309;27;20038;-71
2023/03/25 04:37:47;;;;;;;39.63;4.57;;;8.80;99.90;;;;;;5116053;27;20399;-72
2023/03/25 04:40:17;;;;;;;29.40;5.05;;;8.80;99.90;;;;;;5132200;27;20039;-70
2023/03/25 04:42:45;;;;;;;26.63;4.95;;;8.80;99.90;;;;;;5127113;27;20488;-71
2023/03/25 04:45:17;;;;;;;32.75;5.50;;;8.70;99.90;;;;;;5132474;27;20434;-71
2023/03/25 04:47:46;;;;;;;35.17;6.20;;;8.80;99.90;;;;;;5133812;27;20043;-72
2023/03/25 04:50:17;;;;;;;;;;;8.70;99.90;;;;;;5129210;27;20043;-72
2023/03/25 04:52:43;;;;;;;25.42;5.07;;;8.70;99.90;;;;;;5124477;27;19977;-72
2023/03/25 04:55:16;;;;;;;33.78;5.47;;;8.70;99.90;;;;;;5121919;27;20082;-71
2023/03/25 04:57:53;;;;;;;33.05;5.80;;;8.70;99.90;;;;;;5124487;27;20069;-72
2023/03/25 05:00:21;;;;;;;30.42;4.80;;;8.70;99.90;;;;;;5120989;27;20035;-71
2023/03/25 05:02:51;;;;;;;;;;;8.70;99.90;;;;;;5119695;27;20039;-72
2023/03/25 05:05:19;;;;;;;30.60;5.32;;;8.70;99.90;;;;;;5125366;27;19919;-71
2023/03/25 05:07:50;;;;;;;28.08;5.57;;;8.70;99.90;;;;;;5119664;27;20036;-71
2023/03/25 05:10:18;;;;;;;25.63;4.72;;;8.70;99.90;;;;;;5123605;27;20039;-72
2023/03/25 05:12:44;;;;;;;23.60;5.25;;;8.70;99.90;;;;;;5120747;27;20047;-71
2023/03/25 05:15:11;;;;;;;35.35;4.95;;;8.60;99.90;;;;;;5116559;27;20042;-72
2023/03/25 05:17:37;;;;;;;25.02;4.45;;;8.60;99.90;;;;;;5122079;27;20496;-72
2023/03/25 05:20:10;;;;;;;31.00;6.28;;;8.60;99.90;;;;;;5115748;27;20438;-71
2023/03/25 05:22:37;;;;;;;29.45;6.22;;;8.70;99.90;;;;;;5115589;27;20040;-71
2023/03/25 05:25:08;;;;;;;35.03;6.05;;;8.70;99.90;;;;;;5113209;27;20036;-72
2023/03/25 05:27:34;;;;;;;27.20;4.93;;;8.70;99.90;;;;;;5121675;27;20047;-71
2023/03/25 05:30:00;;;;;;;36.35;5.85;;;8.70;99.90;;;;;;5126451;27;20043;-71
2023/03/25 05:32:34;;;;;;;33.42;5.45;;;8.80;99.90;;;;;;5117777;27;20138;-71
2023/03/25 05:35:01;;;;;;;32.45;4.70;;;8.80;99.90;;;;;;5132460;27;20484;-71
2023/03/25 05:37:27;;;;;;;30.52;5.38;;;8.70;99.90;;;;;;5120448;27;20051;-72
2023/03/25 05:39:53;;;;;;;29.80;5.30;;;8.80;99.90;;;;;;5117394;27;20035;-71
2023/03/25 05:42:22;;;;;;;33.88;5.88;;;8.80;99.90;;;;;;5117241;27;20038;-71
2023/03/25 05:44:52;;;;;;;31.42;5.82;;;8.80;99.90;;;;;;5124789;27;20074;-71
2023/03/25 05:47:23;;;;;;;34.55;6.25;;;8.80;99.90;;;;;;5126837;27;20428;-71
2023/03/25 05:49:50;;;;;;;25.58;4.88;;;8.80;99.90;;;;;;5114578;27;20043;-71
2023/03/25 05:52:18;;;;;;;35.38;5.50;;;8.90;99.90;;;;;;5115619;27;20113;-71
2023/03/25 05:54:45;;;;;;;38.35;6.07;;;8.80;99.90;;;;;;5116328;27;20047;-71
2023/03/25 05:57:11;;;;;;;25.45;5.32;;;9.40;99.90;;;;;;5112901;27;20034;-71
2023/03/25 05:59:37;;;;;;;31.05;5.05;;;8.90;99.90;;;;;;5123954;27;20054;-72
2023/03/25 06:02:06;;;;;;;36.65;5.65;;;8.90;99.90;;;;;;5125062;27;20050;-72
2023/03/25 06:04:36;;;;;;;37.10;5.80;;;8.80;99.90;;;;;;5121914;27;20075;-71
2023/03/25 06:07:13;;;;;;;32.47;5.63;;;8.80;99.90;;;;;;5114976;27;20035;-71
2023/03/25 06:09:44;;;;;;;37.20;6.68;;;8.80;99.90;;;;;;5118922;27;20089;-71
2023/03/25 06:12:15;;;;;;;35.03;5.15;;;8.80;99.90;;;;;;5113266;27;20083;-71
2023/03/25 06:14:44;;;;;;;38.05;6.53;;;8.80;99.90;;;;;;5096036;28;20592;-72
2023/03/25 06:17:21;;;;;;;31.35;5.10;;;8.90;99.90;;;;;;5118144;27;20044;-72
2023/03/25 06:19:50;;;;;;;26.05;4.78;;;8.80;99.90;;;;;;5117793;27;20043;-72
2023/03/25 06:22:19;;;;;;;30.58;5.85;;;8.90;99.90;;;;;;5128307;27;20039;-71
2023/03/25 06:24:45;;;;;;;32.65;5.53;;;8.90;99.90;;;;;;5127448;27;20050;-70
2023/03/25 06:27:16;;;;;;;22.30;4.90;;;8.90;99.90;;;;;;5120472;27;20047;-70
2023/03/25 06:29:42;;;;;;;35.92;5.97;;;9.10;99.90;;;;;;5130851;27;20523;-71
2023/03/25 06:32:10;;;;;;;26.02;4.60;;;8.90;99.90;;;;;;5133663;27;20046;-71
2023/03/25 06:34:37;;;;;;;34.83;5.25;;;9.00;99.90;;;;;;5106971;27;20089;-71
2023/03/25 06:37:03;;;;;;;23.67;4.95;;;9.00;99.90;;;;;;5118988;27;20031;-71
2023/03/25 06:39:30;;;;;;;27.13;4.38;;;9.00;99.90;;;;;;5110794;28;20129;-71
2023/03/25 06:41:59;;;;;;;30.30;5.05;;;8.90;99.90;;;;;;5125329;28;20120;-71
2023/03/25 06:44:26;;;;;;;23.42;4.03;;;8.80;99.90;;;;;;5126026;27;20079;-72
2023/03/25 06:46:52;;;;;;;35.35;5.30;;;8.80;99.90;;;;;;5113732;27;20039;-71
2023/03/25 06:49:18;;;;;;;28.67;5.70;;;8.70;99.90;;;;;;5112994;27;20104;-72
2023/03/25 06:51:44;;;;;;;36.58;4.93;;;8.80;99.90;;;;;;5122860;27;20468;-72
2023/03/25 06:54:09;;;;;;;32.10;5.03;;;8.70;99.90;;;;;;5123357;27;20039;-72
2023/03/25 06:56:35;;;;;;;26.20;5.65;;;8.60;99.90;;;;;;5116181;27;20048;-72
2023/03/25 06:59:01;;;;;;;23.48;4.93;;;8.60;99.90;;;;;;5086623;28;20135;-72
2023/03/25 07:01:27;;;;;;;27.13;4.93;;;8.70;99.90;;;;;;5113586;27;20051;-72
2023/03/25 07:03:53;;;;;;;33.53;5.15;;;8.80;99.90;;;;;;5090008;28;20031;-72
2023/03/25 07:06:22;;;;;;;28.65;5.75;;;8.90;99.90;;;;;;5117643;27;20042;-73
2023/03/25 07:08:49;;;;;;;37.47;6.60;;;8.90;99.90;;;;;;5121619;27;20046;-72
2023/03/25 07:11:18;;;;;;;32.53;5.53;;;9.00;99.90;;;;;;5115057;27;20415;-72
2023/03/25 07:13:44;;;;;;;28.88;5.25;;;9.00;99.90;;;;;;5125855;27;20118;-71
2023/03/25 07:16:10;;;;;;;32.13;4.32;;;9.00;99.90;;;;;;5117572;27;20120;-72
2023/03/25 07:18:36;;;;;;;35.92;5.18;;;9.10;99.90;;;;;;5123406;27;20039;-71
2023/03/25 07:21:02;;;;;;;26.55;5.57;;;9.20;99.90;;;;;;5113811;27;20036;-71
2023/03/25 07:23:27;;;;;;;27.63;3.63;;;9.30;99.90;;;;;;5125866;27;20043;-71
2023/03/25 07:25:55;;;;;;;21.85;4.50;;;9.30;99.90;;;;;;5121038;28;20042;-71
2023/03/25 07:28:21;;;;;;;26.75;4.05;;;9.40;99.90;;;;;;5118194;27;20043;-73
2023/03/25 07:30:47;;;;;;;22.50;4.35;;;9.30;99.90;;;;;;5126290;27;20074;-71
2023/03/25 07:33:13;;;;;;;18.08;3.95;;;9.20;99.90;;;;;;5130947;28;20066;-71
2023/03/25 07:35:39;;;;;;;28.75;4.57;;;9.10;99.90;;;;;;5135683;27;20042;-71
2023/03/25 07:38:05;;;;;;;24.13;4.00;;;9.10;99.90;;;;;;5128845;27;20392;-72
2023/03/25 07:40:30;;;;;;;36.70;5.10;;;9.00;99.90;;;;;;5116918;28;20569;-72
2023/03/25 07:42:56;;;;;;;24.83;4.43;;;9.00;99.90;;;;;;5123185;28;20123;-71
2023/03/25 07:45:22;;;;;;;28.33;4.97;;;8.90;99.90;;;;;;5122860;28;20085;-72
2023/03/25 07:47:49;;;;;;;28.30;4.57;;;8.80;99.90;;;;;;5127881;27;20480;-72
2023/03/25 07:50:22;;;;;;;27.20;4.30;;;8.80;99.90;;;;;;5099280;28;20041;-71
2023/03/25 07:52:48;;;;;;;22.50;4.50;;;8.90;99.90;;;;;;5117587;27;20394;-72
2023/03/25 07:55:15;;;;;;;24.65;3.40;;;8.90;99.90;;;;;;5100323;27;20061;-72
2023/03/25 07:57:41;;;;;;;23.55;3.53;;;8.80;99.90;;;;;;5119485;27;20134;-72
2023/03/25 08:00:08;;;;;;;14.93;3.42;;;8.80;99.90;;;;;;5119545;27;20130;-72
2023/03/25 08:02:34;;;;;;;21.08;3.17;;;8.70;99.90;;;;;;5124243;27;20035;-73
2023/03/25 08:04:59;;;;;;;19.77;3.38;;;8.70;99.90;;;;;;5129693;27;20568;-72
2023/03/25 08:07:27;;;;;;;21.75;4.15;;;8.70;99.90;;;;;;5115377;27;20043;-72
2023/03/25 08:09:53;;;;;;;20.52;4.65;;;8.80;99.90;;;;;;5129523;27;20043;-72
2023/03/25 08:12:18;;;;;;;24.83;4.10;;;8.90;99.90;;;;;;5106209;27;20035;-72
2023/03/25 08:14:44;;;;;;;24.75;4.15;;;8.80;99.90;;;;;;5115846;27;20096;-72
2023/03/25 08:17:10;;;;;;;27.67;4.35;;;8.90;99.90;;;;;;5102859;28;20070;-72
2023/03/25 08:19:35;;;;;;;26.23;4.30;;;8.80;99.90;;;;;;5117132;27;20032;-72
2023/03/25 08:22:01;;;;;;;18.98;3.40;;;8.90;99.90;;;;;;5124998;27;20539;-72
2023/03/25 08:24:28;;;;;;;21.75;3.85;;;8.80;99.90;;;;;;5121208;27;20031;-73
2023/03/25 08:26:54;;;;;;;19.50;3.60;;;8.80;99.90;;;;;;5115174;28;20047;-72
2023/03/25 08:29:20;;;;;;;18.42;3.42;;;8.90;99.90;;;;;;5097839;28;20378;-72
2023/03/25 08:31:50;;;;;;;22.00;4.82;;;8.90;99.90;;;;;;5123583;27;20039;-72
2023/03/25 08:34:17;;;;;;;18.10;3.33;;;8.90;99.90;;;;;;5103494;27;20049;-72
2023/03/25 08:36:43;;;;;;;18.08;3.20;;;8.90;99.90;;;;;;5121992;27;20511;-72
2023/03/25 08:39:10;;;;;;;19.52;4.03;;;9.00;99.90;;;;;;5129173;27;20113;-72
2023/03/25 08:41:37;;;;;;;18.65;3.92;;;9.00;99.90;;;;;;5118711;27;20122;-72
2023/03/25 08:44:04;;;;;;;21.45;4.07;;;9.00;99.90;;;;;;5096568;28;20044;-71
2023/03/25 08:46:29;;;;;;;19.10;3.80;;;9.00;99.90;;;;;;5117785;27;20039;-72
2023/03/25 08:48:55;;;;;;;27.80;3.78;;;9.00;99.90;;;;;;5126493;27;20088;-73
2023/03/25 08:51:21;;;;;;;26.15;3.83;;;9.00;99.90;;;;;;5122418;27;20044;-71
2023/03/25 08:53:47;;;;;;;20.77;3.58;;;9.00;99.90;;;;;;5120007;27;20054;-72
2023/03/25 08:56:13;;;;;;;17.30;3.53;;;8.90;99.90;;;;;;5125266;27;20035;-73
2023/03/25 08:58:39;;;;;;;36.67;4.72;;;8.90;99.90;;;;;;5129809;27;20404;-72
2023/03/25 09:01:05;;;;;;;22.95;3.95;;;8.90;99.90;;;;;;5114102;28;20069;-72
2023/03/25 09:03:32;;;;;;;27.92;4.55;;;8.90;99.90;;;;;;5130794;27;20408;-74
2023/03/25 09:06:03;;;;;;;26.67;4.63;;;8.90;99.90;;;;;;5133998;27;20525;-72
2023/03/25 09:08:28;;;;;;;29.35;5.32;;;9.10;99.90;;;;;;5123568;27;20444;-72
2023/03/25 09:10:55;;;;;;;23.63;3.80;;;9.20;99.90;;;;;;5133587;27;20066;-72
2023/03/25 09:13:20;;;;;;;18.95;3.53;;;9.30;99.90;;;;;;5114236;28;20055;-72
2023/03/25 09:15:46;;;;;;;25.80;4.63;;;9.40;99.90;;;;;;5115123;27;20039;-72
2023/03/25 09:18:12;;;;;;;23.00;4.13;;;9.50;99.90;;;;;;5127878;27;20392;-75
2023/03/25 09:20:38;;;;;;;23.05;4.20;;;9.70;99.90;;;;;;5133937;27;20043;-73
2023/03/25 09:23:04;;;;;;;30.40;4.55;;;10.10;99.90;;;;;;5098690;28;20469;-72
2023/03/25 09:25:30;;;;;;;21.33;3.60;;;10.50;99.90;;;;;;5117022;27;20058;-73
2023/03/25 09:27:55;;;;;;;25.73;4.25;;;10.70;99.90;;;;;;5121813;27;20161;-72
2023/03/25 09:30:21;;;;;;;17.90;3.05;;;10.80;99.90;;;;;;5081709;28;20036;-72
2023/03/25 09:32:47;;;;;;;24.80;4.30;;;10.80;99.90;;;;;;5116778;27;20116;-72
2023/03/25 09:35:12;;;;;;;21.40;4.13;;;10.90;99.90;;;;;;5114091;28;20400;-72
2023/03/25 09:37:38;;;;;;;20.00;4.63;;;10.80;99.90;;;;;;5126140;27;20035;-72
2023/03/25 09:40:05;;;;;;;16.60;3.88;;;10.80;99.90;;;;;;5098820;28;20035;-73
2023/03/25 09:42:58;;;;;;;24.13;4.13;;;10.70;99.90;;;;;;5119363;27;20085;-72
2023/03/25 09:45:41;;;;;;;20.83;3.75;;;10.70;99.90;;;;;;5113975;28;20054;-72
2023/03/25 09:48:28;;;;;;;26.40;4.25;;;10.70;99.90;;;;;;5120920;27;20164;-72
2023/03/25 09:51:01;;;;;;;18.52;4.00;;;10.60;99.90;;;;;;5115455;27;20039;-72
2023/03/25 09:53:41;;;;;;;17.83;3.83;;;10.50;99.90;;;;;;5118032;27;20027;-73
2023/03/25 09:56:14;;;;;;;16.95;4.10;;;10.50;99.90;;;;;;5133722;27;20065;-72
2023/03/25 09:58:51;;;;;;;13.50;2.95;;;10.60;99.90;;;;;;5132517;27;20050;-73
2023/03/25 10:01:50;;;;;;;16.63;4.03;;;10.70;99.90;;;;;;5114189;27;20114;-72
2023/03/25 10:04:54;;;;;;;14.40;3.10;;;10.90;99.90;;;;;;5114216;27;20535;-72
2023/03/25 10:07:42;;;;;;;15.75;3.65;;;10.90;99.90;;;;;;5113015;27;20331;-72
2023/03/25 10:10:22;;;;;;;16.50;3.17;;;10.80;99.90;;;;;;5127750;27;20035;-72
2023/03/25 10:13:03;;;;;;;19.17;4.03;;;10.70;99.90;;;;;;5124196;27;20047;-72
2023/03/25 10:15:32;;;;;;;18.80;4.22;;;10.60;99.90;;;;;;5120745;27;20344;-72
2023/03/25 10:18:26;;;;;;;19.90;4.18;;;10.60;99.90;;;;;;5096405;27;20042;-72
2023/03/25 10:21:10;;;;;;;19.23;3.97;;;10.60;99.90;;;;;;5116348;27;20045;-72
2023/03/25 10:23:45;;;;;;;20.40;3.22;;;10.70;99.90;;;;;;5133452;27;20535;-72
2023/03/25 10:26:24;;;;;;;14.60;2.80;;;10.70;99.90;;;;;;5133764;27;20039;-72
2023/03/25 10:28:53;;;;;;;;;;;10.60;99.90;;;;;;5114094;27;20062;-72
2023/03/25 10:31:21;;;;;;;28.38;4.10;;;10.40;99.90;;;;;;5126643;27;19970;-72
2023/03/25 10:33:56;;;;;;;29.77;3.55;;;10.30;99.90;;;;;;5119247;28;20503;-72
2023/03/25 10:36:39;;;;;;;25.10;3.85;;;10.40;99.90;;;;;;5134928;27;20050;-72
2023/03/25 10:39:13;;;;;;;22.80;4.28;;;10.50;99.90;;;;;;5136956;27;20541;-72
2023/03/25 10:41:42;;;;;;;21.33;4.10;;;10.50;99.90;;;;;;5114968;28;20047;-72
2023/03/25 10:44:08;;;;;;;;;;;10.80;99.90;;;;;;5113373;28;20035;-72
2023/03/25 10:46:49;;;;;;;21.63;4.00;;;10.70;99.90;;;;;;5112757;28;19928;-72
2023/03/25 10:49:21;;;;;;;17.38;3.78;;;10.80;99.90;;;;;;5122599;28;20047;-72
2023/03/25 10:51:49;;;;;;;21.02;3.70;;;10.80;99.90;;;;;;5120450;28;20055;-72
2023/03/25 10:54:16;;;;;;;24.10;3.28;;;10.80;99.90;;;;;;5112986;28;20051;-72
2023/03/25 10:56:54;;;;;;;20.45;4.25;;;10.70;99.90;;;;;;5102770;28;20047;-73
2023/03/25 10:59:28;;;;;;;21.42;4.50;;;10.60;99.90;;;;;;5113899;28;20043;-73
2023/03/25 11:01:56;;;;;;;24.38;4.90;;;10.60;99.90;;;;;;5126023;28;20415;-72
2023/03/25 11:04:34;;;;;;;22.08;4.05;;;10.60;99.90;;;;;;5121288;28;20038;-73
2023/03/25 11:07:04;;;;;;;21.95;3.80;;;10.60;99.90;;;;;;5132172;28;20039;-72
2023/03/25 11:09:31;;;;;;;33.05;3.97;;;10.70;99.90;;;;;;5094457;28;20051;-73
2023/03/25 11:12:03;;;;;;;18.88;3.88;;;10.80;99.90;;;;;;5112168;28;20047;-73
2023/03/25 11:14:29;;;;;;;20.23;4.25;;;10.90;99.90;;;;;;5111906;27;20484;-72
2023/03/25 11:16:59;;;;;;;18.10;3.53;;;11.00;99.90;;;;;;5115546;28;20038;-72
2023/03/25 11:19:39;;;;;;;23.08;4.22;;;11.20;99.90;;;;;;5098281;28;20085;-72
2023/03/25 11:22:20;;;;;;;23.20;3.75;;;11.20;99.90;;;;;;5112478;28;20521;-72
2023/03/25 11:24:53;;;;;;;22.08;3.30;;;11.20;99.90;;;;;;5108496;28;20054;-72
2023/03/25 11:27:23;;;;;;;22.15;3.78;;;11.20;99.90;;;;;;5123372;27;20053;-71
2023/03/25 11:30:02;;;;;;;18.65;3.78;;;11.20;99.90;;;;;;5137407;27;20361;-71
2023/03/25 11:32:37;;;;;;;18.33;3.63;;;11.20;99.90;;;;;;5120130;28;20040;-72
2023/03/25 11:35:20;;;;;;;19.17;3.63;;;11.40;99.90;;;;;;5137051;27;20039;-71
2023/03/25 11:38:01;;;;;;;18.05;3.20;;;11.40;99.90;;;;;;5151250;27;20043;-71
2023/03/25 11:40:30;;;;;;;14.02;3.17;;;11.40;99.90;;;;;;5117926;27;20036;-72
2023/03/25 11:42:57;;;;;;;15.70;3.10;;;11.40;99.90;;;;;;5116297;27;20041;-72
2023/03/25 11:45:23;;;;;;;18.05;2.78;;;11.30;99.90;;;;;;5124209;27;20043;-72
2023/03/25 11:47:49;;;;;;;18.60;3.50;;;11.30;99.90;;;;;;5129544;27;20397;-72
2023/03/25 11:50:25;;;;;;;19.52;4.00;;;11.40;99.90;;;;;;5134856;27;20039;-72
2023/03/25 11:53:15;;;;;;;21.15;3.20;;;11.40;99.90;;;;;;5129411;27;20531;-72
2023/03/25 11:55:45;;;;;;;20.00;3.38;;;11.50;99.90;;;;;;5113106;27;20031;-73
2023/03/25 11:58:17;;;;;;;18.35;3.35;;;11.60;99.90;;;;;;5108192;27;20057;-71
2023/03/25 12:00:52;;;;;;;19.48;3.15;;;11.70;99.90;;;;;;5132960;27;20043;-72
2023/03/25 12:03:26;;;;;;;14.10;3.50;;;11.70;99.90;;;;;;5133807;27;20042;-72
2023/03/25 12:06:09;;;;;;;17.08;3.10;;;11.80;99.90;;;;;;5112802;27;20110;-72
2023/03/25 12:08:59;;;;;;;17.92;3.65;;;11.90;99.90;;;;;;5110445;28;20126;-72
2023/03/25 12:11:35;;;;;;;;;;;11.90;99.90;;;;;;5134078;27;20039;-72
2023/03/25 12:14:15;;;;;;;16.88;3.35;;;11.90;99.90;;;;;;5114183;27;19919;-70
2023/03/25 12:17:11;;;;;;;15.63;3.25;;;12.10;99.90;;;;;;5129906;27;20086;-71
2023/03/25 12:20:07;;;;;;;14.70;3.15;;;12.20;99.90;;;;;;5133323;27;20043;-71
2023/03/25 12:22:58;;;;;;;15.35;2.60;;;12.30;99.90;;;;;;5132790;27;20126;-71
2023/03/25 12:25:27;;;;;;;12.73;3.15;;;12.30;99.90;;;;;;5128102;27;20039;-73
2023/03/25 12:27:59;;;;;;;15.10;3.15;;;12.20;99.90;;;;;;5118494;27;20442;-73
2023/03/25 12:30:30;;;;;;;13.50;2.83;;;12.20;99.90;;;;;;5131639;27;20080;-72
2023/03/25 12:33:21;;;;;;;18.20;3.15;;;12.20;99.90;;;;;;5135947;27;20031;-71
2023/03/25 12:36:06;;;;;;;21.65;4.03;;;12.30;99.90;;;;;;5098564;27;20139;-72
2023/03/25 12:39:21;;;;;;;16.98;3.10;;;12.50;99.90;;;;;;5145601;27;20074;-72
2023/03/25 12:42:25;;;;;;;17.45;3.70;;;12.70;99.90;;;;;;5093612;28;20044;-72
2023/03/25 12:45:04;;;;;;;15.52;2.83;;;12.90;99.90;;;;;;5081081;27;20569;-72
2023/03/25 12:47:36;;;;;;;12.50;2.92;;;12.80;99.90;;;;;;5154366;27;20491;-72
2023/03/25 12:50:24;;;;;;;14.10;2.97;;;12.60;99.90;;;;;;5109904;27;20527;-71
2023/03/25 12:53:13;;;;;;;9.85;2.20;;;12.50;99.90;;;;;;5120998;27;20060;-72
2023/03/25 12:56:02;;;;;;;14.43;2.63;;;12.30;99.90;;;;;;5102843;27;20532;-73
2023/03/25 12:58:36;;;;;;;21.08;3.50;;;12.20;99.90;;;;;;5132232;27;20083;-72
2023/03/25 13:01:29;;;;;;;15.70;3.58;;;11.90;99.90;;;;;;5114292;27;20039;-72
2023/03/25 13:04:10;;;;;;;12.35;2.60;;;11.70;99.90;;;;;;5114695;28;20126;-72
2023/03/25 13:06:44;;;;;;;16.13;3.03;;;11.60;99.90;;;;;;5118916;27;20045;-72
2023/03/25 13:09:20;;;;;;;22.20;3.65;;;11.40;99.90;;;;;;5117350;27;20095;-72
2023/03/25 13:12:18;;;;;;;15.00;2.85;;;10.70;99.90;;;;;;5128792;27;20101;-71